Time,TemperatureF,DewpointF,PressureIn,WindDirection,WindDirectionDegrees,WindSpeedMPH,WindSpeedGustMPH,Humidity,HourlyPrecipIn,Conditions,Clouds,dailyrainin,SoftwareType,DateUTC
2013-03-10 00:00:00,36.0,28.2,30.44,WSW,248,0.0,0.0,73,0.00,,,0.00,WUHU216HW,2013-03-10 05:00:00,
2013-03-10 00:05:00,36.0,28.2,30.44,WSW,248,0.0,0.0,73,0.00,,,0.00,WUHU216HW,2013-03-10 05:05:00,
2013-03-10 00:10:00,35.6,28.1,30.44,WSW,248,0.0,0.0,74,0.00,,,0.00,WUHU216HW,2013-03-10 05:10:00,
2013-03-10 00:15:00,35.5,27.9,30.45,WSW,248,0.0,0.0,74,0.00,,,0.00,WUHU216HW,2013-03-10 05:15:00,
2013-03-10 00:20:00,35.3,27.7,30.45,WSW,248,0.0,0.0,74,0.00,,,0.00,WUHU216HW,2013-03-10 05:20:00,
2013-03-10 00:25:00,35.3,28.1,30.45,WSW,248,0.0,0.0,75,0.00,,,0.00,WUHU216HW,2013-03-10 05:25:00,
2013-03-10 00:30:00,35.1,27.9,30.45,WSW,248,0.0,0.0,75,0.00,,,0.00,WUHU216HW,2013-03-10 05:30:00,
2013-03-10 00:35:00,34.9,27.7,30.45,WSW,248,0.0,0.0,75,0.00,,,0.00,WUHU216HW,2013-03-10 05:35:00,
2013-03-10 00:40:00,34.9,28.1,30.45,WSW,248,0.0,0.0,76,0.00,,,0.00,WUHU216HW,2013-03-10 05:40:00,
2013-03-10 00:45:00,34.9,28.1,30.45,WSW,248,0.0,0.0,76,0.00,,,0.00,WUHU216HW,2013-03-10 05:45:00,
2013-03-10 00:50:00,34.7,27.9,30.46,WSW,248,0.0,0.0,76,0.00,,,0.00,WUHU216HW,2013-03-10 05:50:00,
2013-03-10 00:55:00,34.6,27.7,30.45,North,0,0.0,0.4,76,0.00,,,0.00,WUHU216HW,2013-03-10 05:55:00,
2013-03-10 01:00:00,34.6,27.7,30.45,North,0,0.0,0.4,76,0.00,,,0.00,WUHU216HW,2013-03-10 06:00:00,
2013-03-10 01:05:00,34.6,27.7,30.45,North,0,0.0,0.2,76,0.00,,,0.00,WUHU216HW,2013-03-10 06:05:00,
2013-03-10 01:10:00,34.6,28.0,30.45,North,0,0.0,0.2,77,0.00,,,0.00,WUHU216HW,2013-03-10 06:10:00,
2013-03-10 01:15:00,34.4,27.8,30.45,North,0,0.0,0.0,77,0.00,,,0.00,WUHU216HW,2013-03-10 06:15:00,
2013-03-10 01:20:00,34.2,27.6,30.45,North,0,0.0,0.0,77,0.00,,,0.00,WUHU216HW,2013-03-10 06:20:00,
2013-03-10 01:25:00,34.2,27.6,30.45,North,0,0.0,0.0,77,0.00,,,0.00,WUHU216HW,2013-03-10 06:25:00,
2013-03-10 01:30:00,34.2,28.0,30.44,North,0,0.0,0.0,78,0.00,,,0.00,WUHU216HW,2013-03-10 06:30:00,
2013-03-10 01:35:00,34.2,28.0,30.44,North,0,0.0,0.0,78,0.00,,,0.00,WUHU216HW,2013-03-10 06:35:00,
2013-03-10 01:40:00,34.0,27.8,30.44,North,0,0.0,0.0,78,0.00,,,0.00,WUHU216HW,2013-03-10 06:40:00,
2013-03-10 01:45:00,33.8,27.6,30.44,North,0,0.0,0.0,78,0.00,,,0.00,WUHU216HW,2013-03-10 06:45:00,
2013-03-10 01:51:00,33.8,27.6,30.44,North,0,0.0,0.0,78,0.00,,,0.00,WUHU216HW,2013-03-10 06:51:00,
2013-03-10 01:56:00,33.7,27.5,30.44,North,0,0.0,0.0,78,0.00,,,0.00,WUHU216HW,2013-03-10 06:56:00,
2013-03-10 03:01:00,33.5,27.6,30.45,NNW,338,0.0,0.4,79,0.00,,,0.00,WUHU216HW,2013-03-10 07:01:00,
2013-03-10 03:06:00,33.3,27.5,30.44,NNW,338,0.0,0.4,79,0.00,,,0.00,WUHU216HW,2013-03-10 07:06:00,
2013-03-10 03:11:00,33.1,27.3,30.44,NNW,338,0.0,0.2,79,0.00,,,0.00,WUHU216HW,2013-03-10 07:11:00,
2013-03-10 03:16:00,32.9,27.1,30.44,NNW,338,0.0,0.2,79,0.00,,,0.00,WUHU216HW,2013-03-10 07:16:00,
2013-03-10 03:21:00,32.9,27.1,30.44,NNW,338,0.0,0.2,79,0.00,,,0.00,WUHU216HW,2013-03-10 07:21:00,
2013-03-10 03:26:00,32.9,27.5,30.44,NNW,338,0.0,0.2,80,0.00,,,0.00,WUHU216HW,2013-03-10 07:26:00,
2013-03-10 03:31:00,32.8,27.3,30.44,NNW,338,0.0,0.2,80,0.00,,,0.00,WUHU216HW,2013-03-10 07:31:00,
2013-03-10 03:36:00,32.8,27.3,30.44,NNW,338,0.0,0.2,80,0.00,,,0.00,WUHU216HW,2013-03-10 07:36:00,
2013-03-10 03:41:00,32.8,27.3,30.43,NNW,338,0.0,0.2,80,0.00,,,0.00,WUHU216HW,2013-03-10 07:41:00,
2013-03-10 03:46:00,32.8,27.3,30.43,NNW,338,0.0,0.2,80,0.00,,,0.00,WUHU216HW,2013-03-10 07:46:00,
2013-03-10 03:51:00,32.6,27.1,30.43,NNW,338,0.0,0.2,80,0.00,,,0.00,WUHU216HW,2013-03-10 07:51:00,
2013-03-10 03:56:00,32.6,27.1,30.43,NNW,338,0.0,0.2,80,0.00,,,0.00,WUHU216HW,2013-03-10 07:56:00,
2013-03-10 04:01:00,32.4,27.0,30.43,NNW,338,0.0,0.2,80,0.00,,,0.00,WUHU216HW,2013-03-10 08:01:00,
2013-03-10 04:06:00,32.4,27.0,30.43,NNW,338,0.0,0.2,80,0.00,,,0.00,WUHU216HW,2013-03-10 08:06:00,
2013-03-10 04:11:00,32.2,26.8,30.43,NNW,338,0.0,0.0,80,0.00,,,0.00,WUHU216HW,2013-03-10 08:11:00,
2013-03-10 04:16:00,32.0,26.6,30.44,NNW,338,0.0,0.0,80,0.00,,,0.00,WUHU216HW,2013-03-10 08:16:00,
2013-03-10 04:21:00,32.0,26.3,30.44,NNW,338,0.0,0.4,79,0.00,,,0.00,WUHU216HW,2013-03-10 08:21:00,
2013-03-10 04:26:00,31.9,26.1,30.44,NNW,338,0.0,0.4,79,0.00,,,0.00,WUHU216HW,2013-03-10 08:26:00,
2013-03-10 04:31:00,31.7,26.3,30.45,NNW,338,0.0,0.0,80,0.00,,,0.00,WUHU216HW,2013-03-10 08:31:00,
2013-03-10 04:36:00,31.5,26.1,30.44,NNW,338,0.0,0.0,80,0.00,,,0.00,WUHU216HW,2013-03-10 08:36:00,
2013-03-10 04:41:00,31.5,26.1,30.44,NNW,338,0.0,0.0,80,0.00,,,0.00,WUHU216HW,2013-03-10 08:41:00,
2013-03-10 05:00:00,31.5,26.1,30.46,NNW,338,0.0,0.0,80,0.00,,,0.00,WUHU216HW,2013-03-10 09:00:00,
2013-03-10 05:05:00,31.5,26.4,30.46,NNW,338,0.0,0.0,81,0.00,,,0.00,WUHU216HW,2013-03-10 09:05:00,
2013-03-10 05:10:00,31.3,26.2,30.46,NNW,338,0.0,0.0,81,0.00,,,0.00,WUHU216HW,2013-03-10 09:10:00,
2013-03-10 05:15:00,31.3,26.2,30.45,NNW,338,0.0,0.0,81,0.00,,,0.00,WUHU216HW,2013-03-10 09:15:00,
2013-03-10 05:20:00,31.3,26.2,30.46,NNW,338,0.0,0.0,81,0.00,,,0.00,WUHU216HW,2013-03-10 09:20:00,
2013-03-10 05:25:00,31.3,26.2,30.45,NNW,338,0.0,0.0,81,0.00,,,0.00,WUHU216HW,2013-03-10 09:25:00,
2013-03-10 05:31:00,31.3,26.2,30.46,NNW,338,0.0,0.0,81,0.00,,,0.00,WUHU216HW,2013-03-10 09:31:00,
2013-03-10 05:36:00,31.3,26.2,30.45,North,0,0.0,0.4,81,0.00,,,0.00,WUHU216HW,2013-03-10 09:36:00,
2013-03-10 05:41:00,31.3,26.2,30.46,North,0,0.4,0.7,81,0.00,,,0.00,WUHU216HW,2013-03-10 09:41:00,
2013-03-10 05:46:00,31.5,26.4,30.46,North,0,0.4,0.9,81,0.00,,,0.00,WUHU216HW,2013-03-10 09:46:00,
2013-03-10 05:51:00,31.5,26.4,30.46,North,0,0.4,0.9,81,0.00,,,0.00,WUHU216HW,2013-03-10 09:51:00,
2013-03-10 05:56:00,31.7,26.8,30.46,North,0,0.2,0.4,82,0.00,,,0.00,WUHU216HW,2013-03-10 09:56:00,
2013-03-10 06:01:00,31.7,26.8,30.46,North,0,0.0,0.4,82,0.00,,,0.00,WUHU216HW,2013-03-10 10:01:00,
2013-03-10 06:06:00,31.9,27.0,30.46,North,0,0.0,0.4,82,0.00,,,0.00,WUHU216HW,2013-03-10 10:06:00,
2013-03-10 06:11:00,31.7,26.8,30.46,North,0,0.0,0.2,82,0.00,,,0.00,WUHU216HW,2013-03-10 10:11:00,
2013-03-10 06:16:00,31.7,26.8,30.47,North,0,0.0,0.0,82,0.00,,,0.00,WUHU216HW,2013-03-10 10:16:00,
2013-03-10 06:21:00,31.5,27.0,30.46,North,0,0.0,0.4,83,0.00,,,0.00,WUHU216HW,2013-03-10 10:21:00,
2013-03-10 06:26:00,31.5,27.0,30.47,North,0,0.0,0.4,83,0.00,,,0.00,WUHU216HW,2013-03-10 10:26:00,
2013-03-10 06:31:00,31.3,26.8,30.47,North,0,0.0,0.4,83,0.00,,,0.00,WUHU216HW,2013-03-10 10:31:00,
2013-03-10 06:36:00,31.3,26.8,30.47,North,0,0.0,0.0,83,0.00,,,0.00,WUHU216HW,2013-03-10 10:36:00,
2013-03-10 06:41:00,31.1,26.7,30.47,North,0,0.0,0.0,83,0.00,,,0.00,WUHU216HW,2013-03-10 10:41:00,
2013-03-10 06:46:00,31.0,26.5,30.47,North,0,0.0,0.0,83,0.00,,,0.00,WUHU216HW,2013-03-10 10:46:00,
2013-03-10 06:51:00,31.0,26.5,30.47,North,0,0.0,0.0,83,0.00,,,0.00,WUHU216HW,2013-03-10 10:51:00,
2013-03-10 06:56:00,31.0,26.5,30.47,North,0,0.0,0.0,83,0.00,,,0.00,WUHU216HW,2013-03-10 10:56:00,
2013-03-10 07:01:00,31.0,26.5,30.47,North,0,0.0,0.0,83,0.00,,,0.00,WUHU216HW,2013-03-10 11:01:00,
2013-03-10 07:06:00,31.0,26.5,30.47,North,0,0.0,0.0,83,0.00,,,0.00,WUHU216HW,2013-03-10 11:06:00,
2013-03-10 07:11:00,30.8,26.3,30.47,North,0,0.0,0.4,83,0.00,,,0.00,WUHU216HW,2013-03-10 11:11:00,
2013-03-10 07:16:00,30.6,26.1,30.47,North,0,0.0,0.4,83,0.00,,,0.00,WUHU216HW,2013-03-10 11:16:00,
2013-03-10 07:21:00,30.6,26.1,30.48,North,0,0.0,0.0,83,0.00,,,0.00,WUHU216HW,2013-03-10 11:21:00,
2013-03-10 07:26:00,30.4,25.9,30.48,NNW,338,0.2,0.4,83,0.00,,,0.00,WUHU216HW,2013-03-10 11:26:00,
2013-03-10 07:31:00,30.4,25.9,30.48,NNW,338,0.4,0.4,83,0.00,,,0.00,WUHU216HW,2013-03-10 11:31:00,
2013-03-10 07:36:00,30.4,25.9,30.48,NNW,338,0.0,0.4,83,0.00,,,0.00,WUHU216HW,2013-03-10 11:36:00,
2013-03-10 07:41:00,30.4,25.9,30.48,NNW,338,0.0,0.2,83,0.00,,,0.00,WUHU216HW,2013-03-10 11:41:00,
2013-03-10 07:46:00,30.6,26.1,30.48,NNW,338,0.0,0.2,83,0.00,,,0.00,WUHU216HW,2013-03-10 11:46:00,
2013-03-10 07:51:00,30.6,26.1,30.49,NNW,338,0.0,0.0,83,0.00,,,0.00,WUHU216HW,2013-03-10 11:51:00,
2013-03-10 07:56:00,31.0,26.5,30.48,NNW,338,0.0,0.0,83,0.00,,,0.00,WUHU216HW,2013-03-10 11:56:00,
2013-03-10 08:01:00,31.3,26.8,30.48,North,0,0.2,0.4,83,0.00,,,0.00,WUHU216HW,2013-03-10 12:01:00,
2013-03-10 08:06:00,31.7,27.2,30.48,North,0,0.0,0.4,83,0.00,,,0.00,WUHU216HW,2013-03-10 12:06:00,
2013-03-10 08:11:00,32.0,27.6,30.48,North,0,0.0,0.0,83,0.00,,,0.00,WUHU216HW,2013-03-10 12:11:00,
2013-03-10 08:16:00,32.4,27.8,30.48,NNE,23,0.4,0.4,83,0.00,,,0.00,WUHU216HW,2013-03-10 12:16:00,
2013-03-10 08:21:00,32.8,28.2,30.48,NNE,23,1.1,1.1,83,0.00,,,0.00,WUHU216HW,2013-03-10 12:21:00,
2013-03-10 08:26:00,33.3,28.9,30.49,East,90,1.1,1.1,84,0.00,,,0.00,WUHU216HW,2013-03-10 12:26:00,
2013-03-10 08:31:00,33.7,29.3,30.48,ESE,113,0.4,2.2,84,0.00,,,0.00,WUHU216HW,2013-03-10 12:31:00,
2013-03-10 08:36:00,34.6,30.2,30.49,ESE,113,0.4,5.4,84,0.00,,,0.00,WUHU216HW,2013-03-10 12:36:00,
2013-03-10 08:41:00,35.3,31.1,30.49,East,90,0.4,5.4,85,0.00,,,0.00,WUHU216HW,2013-03-10 12:41:00,
2013-03-10 08:46:00,35.6,31.5,30.49,ESE,113,1.1,2.0,85,0.00,,,0.00,WUHU216HW,2013-03-10 12:46:00,
2013-03-10 08:51:00,36.4,32.5,30.49,SE,135,3.1,3.1,86,0.00,,,0.00,WUHU216HW,2013-03-10 12:51:00,
2013-03-10 08:56:00,36.7,32.9,30.49,NE,45,4.3,4.3,86,0.00,,,0.00,WUHU216HW,2013-03-10 12:56:00,
2013-03-10 09:01:00,37.1,32.9,30.49,ENE,68,1.1,4.3,85,0.00,,,0.00,WUHU216HW,2013-03-10 13:01:00,
2013-03-10 09:06:00,37.6,33.5,30.49,SE,135,4.3,4.3,85,0.00,,,0.00,WUHU216HW,2013-03-10 13:06:00,
2013-03-10 09:11:00,38.0,33.6,30.49,ESE,113,2.0,4.3,84,0.00,,,0.00,WUHU216HW,2013-03-10 13:11:00,
2013-03-10 09:16:00,38.5,34.1,30.49,East,90,1.1,3.6,84,0.00,,,0.00,WUHU216HW,2013-03-10 13:16:00,
2013-03-10 09:21:00,38.7,34.3,30.49,ESE,113,2.2,2.5,84,0.00,,,0.00,WUHU216HW,2013-03-10 13:21:00,
2013-03-10 09:26:00,39.1,34.7,30.49,ENE,68,1.8,4.3,84,0.00,,,0.00,WUHU216HW,2013-03-10 13:26:00,
2013-03-10 09:31:00,39.2,34.6,30.49,NE,45,0.7,4.3,83,0.00,,,0.00,WUHU216HW,2013-03-10 13:31:00,
2013-03-10 09:36:00,39.6,34.8,30.50,ESE,113,2.2,3.4,83,0.00,,,0.00,WUHU216HW,2013-03-10 13:36:00,
2013-03-10 09:41:00,40.0,35.2,30.50,NNE,23,1.1,3.4,83,0.00,,,0.00,WUHU216HW,2013-03-10 13:41:00,
2013-03-10 09:46:00,40.3,35.2,30.50,ENE,68,3.8,3.8,82,0.00,,,0.00,WUHU216HW,2013-03-10 13:46:00,
2013-03-10 09:51:00,40.3,35.6,30.50,ESE,113,2.2,6.9,83,0.00,,,0.00,WUHU216HW,2013-03-10 13:51:00,
2013-03-10 09:56:00,40.7,35.6,30.50,North,0,1.6,6.9,82,0.00,,,0.00,WUHU216HW,2013-03-10 13:56:00,
2013-03-10 10:01:00,40.9,35.7,30.50,ENE,68,1.1,3.1,82,0.00,,,0.00,WUHU216HW,2013-03-10 14:01:00,
2013-03-10 10:06:00,41.0,35.9,30.51,ESE,113,2.5,4.7,82,0.00,,,0.00,WUHU216HW,2013-03-10 14:06:00,
2013-03-10 10:11:00,41.4,35.9,30.51,East,90,1.6,4.7,81,0.00,,,0.00,WUHU216HW,2013-03-10 14:11:00,
2013-03-10 10:16:00,41.6,36.1,30.51,ESE,113,1.6,5.1,81,0.00,,,0.00,WUHU216HW,2013-03-10 14:16:00,
2013-03-10 10:21:00,41.8,36.3,30.51,ENE,68,1.1,5.1,81,0.00,,,0.00,WUHU216HW,2013-03-10 14:21:00,
2013-03-10 10:26:00,42.1,36.6,30.51,NNE,23,2.2,2.2,81,0.00,,,0.00,WUHU216HW,2013-03-10 14:26:00,
2013-03-10 10:31:00,42.1,36.4,30.51,North,0,0.4,3.1,80,0.00,,,0.00,WUHU216HW,2013-03-10 14:31:00,
2013-03-10 10:36:00,42.3,36.5,30.52,NE,45,0.7,3.1,80,0.00,,,0.00,WUHU216HW,2013-03-10 14:36:00,
2013-03-10 10:41:00,42.3,36.2,30.51,ENE,68,2.0,3.6,79,0.00,,,0.00,WUHU216HW,2013-03-10 14:41:00,
2013-03-10 10:46:00,42.7,36.5,30.51,ESE,113,1.1,3.6,79,0.00,,,0.00,WUHU216HW,2013-03-10 14:46:00,
2013-03-10 10:51:00,42.8,36.7,30.52,NNE,23,2.9,3.4,79,0.00,,,0.00,WUHU216HW,2013-03-10 14:51:00,
2013-03-10 10:56:00,43.4,37.3,30.51,SE,135,2.9,3.1,79,0.00,,,0.00,WUHU216HW,2013-03-10 14:56:00,
2013-03-10 11:01:00,43.6,37.2,30.52,ENE,68,3.4,4.3,78,0.00,,,0.00,WUHU216HW,2013-03-10 15:01:00,
2013-03-10 11:06:00,43.6,36.8,30.51,NE,45,3.1,4.3,77,0.00,,,0.00,WUHU216HW,2013-03-10 15:06:00,
2013-03-10 11:11:00,43.6,36.8,30.51,SE,135,2.9,4.3,77,0.00,,,0.00,WUHU216HW,2013-03-10 15:11:00,
2013-03-10 11:16:00,43.7,37.0,30.51,ESE,113,1.3,3.4,77,0.00,,,0.00,WUHU216HW,2013-03-10 15:16:00,
2013-03-10 11:21:00,43.6,36.5,30.51,NE,45,1.1,4.0,76,0.00,,,0.00,WUHU216HW,2013-03-10 15:21:00,
2013-03-10 11:26:00,43.7,36.6,30.51,ESE,113,0.7,4.0,76,0.00,,,0.00,WUHU216HW,2013-03-10 15:26:00,
2013-03-10 11:31:00,44.3,37.2,30.51,ESE,113,5.1,5.1,76,0.00,,,0.00,WUHU216HW,2013-03-10 15:31:00,
2013-03-10 11:36:00,44.6,37.5,30.51,ENE,68,1.3,5.1,76,0.00,,,0.00,WUHU216HW,2013-03-10 15:36:00,
2013-03-10 11:41:00,44.8,37.4,30.51,ENE,68,6.3,6.3,75,0.00,,,0.00,WUHU216HW,2013-03-10 15:41:00,
2013-03-10 11:46:00,45.0,37.5,30.51,ESE,113,1.1,6.3,75,0.00,,,0.00,WUHU216HW,2013-03-10 15:46:00,
2013-03-10 11:51:00,45.0,37.2,30.51,ESE,113,2.5,6.3,74,0.00,,,0.00,WUHU216HW,2013-03-10 15:51:00,
2013-03-10 11:56:00,45.0,37.2,30.51,ESE,113,1.6,4.3,74,0.00,,,0.00,WUHU216HW,2013-03-10 15:56:00,
2013-03-10 12:01:00,45.2,37.4,30.51,NNE,23,1.6,4.3,74,0.00,,,0.00,WUHU216HW,2013-03-10 16:01:00,
2013-03-10 12:06:00,45.2,37.4,30.51,NNE,23,2.0,4.0,74,0.00,,,0.00,WUHU216HW,2013-03-10 16:06:00,
2013-03-10 12:11:00,45.4,37.5,30.51,ESE,113,3.4,4.5,74,0.00,,,0.00,WUHU216HW,2013-03-10 16:11:00,
2013-03-10 12:16:00,45.5,37.7,30.51,ESE,113,2.5,4.5,74,0.00,,,0.00,WUHU216HW,2013-03-10 16:16:00,
2013-03-10 12:21:00,45.9,38.1,30.51,SE,135,5.1,5.1,74,0.00,,,0.00,WUHU216HW,2013-03-10 16:21:00,
2013-03-10 12:26:00,46.4,38.6,30.51,East,90,5.6,5.6,74,0.00,,,0.00,WUHU216HW,2013-03-10 16:26:00,
2013-03-10 12:31:00,46.4,38.3,30.51,ENE,68,4.7,5.6,73,0.00,,,0.00,WUHU216HW,2013-03-10 16:31:00,
2013-03-10 12:36:00,46.1,37.6,30.51,NE,45,4.7,6.9,72,0.00,,,0.00,WUHU216HW,2013-03-10 16:36:00,
2013-03-10 12:41:00,45.9,37.5,30.51,ESE,113,3.6,6.9,72,0.00,,,0.00,WUHU216HW,2013-03-10 16:41:00,
2013-03-10 12:46:00,46.4,38.3,30.51,ESE,113,3.6,3.6,73,0.00,,,0.00,WUHU216HW,2013-03-10 16:46:00,
2013-03-10 12:51:00,46.6,38.1,30.51,SSE,158,1.1,3.6,72,0.00,,,0.00,WUHU216HW,2013-03-10 16:51:00,
2013-03-10 12:56:00,46.8,38.3,30.51,NE,45,2.0,5.1,72,0.00,,,0.00,WUHU216HW,2013-03-10 16:56:00,
2013-03-10 13:01:00,47.0,38.4,30.51,ESE,113,4.0,6.7,72,0.00,,,0.00,WUHU216HW,2013-03-10 17:01:00,
2013-03-10 13:06:00,47.2,38.6,30.51,SE,135,5.4,6.7,72,0.00,,,0.00,WUHU216HW,2013-03-10 17:06:00,
2013-03-10 13:11:00,47.5,38.9,30.51,East,90,1.8,5.4,72,0.00,,,0.00,WUHU216HW,2013-03-10 17:11:00,
2013-03-10 13:16:00,47.9,38.9,30.50,ESE,113,2.7,5.4,71,0.00,,,0.00,WUHU216HW,2013-03-10 17:16:00,
2013-03-10 13:21:00,47.5,38.3,30.50,ENE,68,2.7,2.7,70,0.00,,,0.00,WUHU216HW,2013-03-10 17:21:00,
2013-03-10 13:26:00,47.3,38.1,30.50,ESE,113,2.0,2.7,70,0.00,,,0.00,WUHU216HW,2013-03-10 17:26:00,
2013-03-10 13:31:00,47.5,38.3,30.50,NE,45,2.2,2.7,70,0.00,,,0.00,WUHU216HW,2013-03-10 17:31:00,
2013-03-10 13:36:00,47.5,38.3,30.50,ESE,113,4.0,4.0,70,0.00,,,0.00,WUHU216HW,2013-03-10 17:36:00,
2013-03-10 13:41:00,48.2,38.9,30.50,East,90,1.8,4.0,70,0.00,,,0.00,WUHU216HW,2013-03-10 17:41:00,
2013-03-10 13:46:00,48.4,38.7,30.49,South,180,3.6,4.0,69,0.00,,,0.00,WUHU216HW,2013-03-10 17:46:00,
2013-03-10 13:51:00,48.4,38.7,30.49,SE,135,1.1,3.6,69,0.00,,,0.00,WUHU216HW,2013-03-10 17:51:00,
2013-03-10 13:56:00,48.4,38.7,30.49,ESE,113,3.4,3.4,69,0.00,,,0.00,WUHU216HW,2013-03-10 17:56:00,
2013-03-10 14:01:00,48.6,38.5,30.49,SSE,158,2.7,3.4,68,0.00,,,0.00,WUHU216HW,2013-03-10 18:01:00,
2013-03-10 14:06:00,48.4,38.4,30.49,East,90,1.8,4.3,68,0.00,,,0.00,WUHU216HW,2013-03-10 18:06:00,
2013-03-10 14:11:00,48.8,38.6,30.49,SE,135,2.9,4.3,68,0.00,,,0.00,WUHU216HW,2013-03-10 18:11:00,
2013-03-10 14:16:00,49.0,38.8,30.49,SSE,158,1.8,2.9,68,0.00,,,0.00,WUHU216HW,2013-03-10 18:16:00,
2013-03-10 14:21:00,49.3,39.2,30.49,SE,135,2.9,2.9,68,0.00,,,0.00,WUHU216HW,2013-03-10 18:21:00,
2013-03-10 14:26:00,49.1,38.6,30.49,ESE,113,2.5,5.1,67,0.00,,,0.00,WUHU216HW,2013-03-10 18:26:00,
2013-03-10 14:31:00,49.0,38.4,30.49,SE,135,4.5,5.1,67,0.00,,,0.00,WUHU216HW,2013-03-10 18:31:00,
2013-03-10 14:36:00,49.0,38.4,30.48,South,180,2.2,4.5,67,0.00,,,0.00,WUHU216HW,2013-03-10 18:36:00,
2013-03-10 14:41:00,49.0,38.4,30.48,SSE,158,3.6,4.5,67,0.00,,,0.00,WUHU216HW,2013-03-10 18:41:00,
2013-03-10 14:46:00,49.1,38.6,30.48,ESE,113,1.8,4.5,67,0.00,,,0.00,WUHU216HW,2013-03-10 18:46:00,
2013-03-10 14:51:00,49.3,38.4,30.48,SE,135,2.7,4.5,66,0.00,,,0.00,WUHU216HW,2013-03-10 18:51:00,
2013-03-10 14:56:00,49.5,38.6,30.48,SSW,203,1.1,3.6,66,0.00,,,0.00,WUHU216HW,2013-03-10 18:56:00,
2013-03-10 15:02:00,49.5,38.6,30.48,East,90,2.5,3.6,66,0.00,,,0.00,WUHU216HW,2013-03-10 19:02:00,
2013-03-10 15:07:00,49.3,38.4,30.48,ENE,68,3.1,3.6,66,0.00,,,0.00,WUHU216HW,2013-03-10 19:07:00,
2013-03-10 15:12:00,49.3,38.4,30.48,NE,45,1.1,3.1,66,0.00,,,0.00,WUHU216HW,2013-03-10 19:12:00,
2013-03-10 15:17:00,49.3,38.4,30.48,East,90,2.7,2.7,66,0.00,,,0.00,WUHU216HW,2013-03-10 19:17:00,
2013-03-10 15:22:00,49.1,37.8,30.48,ESE,113,3.8,3.8,65,0.00,,,0.00,WUHU216HW,2013-03-10 19:22:00,
2013-03-10 15:27:00,49.0,37.7,30.48,ENE,68,1.3,4.0,65,0.00,,,0.00,WUHU216HW,2013-03-10 19:27:00,
2013-03-10 15:32:00,49.0,37.7,30.48,East,90,1.3,4.0,65,0.00,,,0.00,WUHU216HW,2013-03-10 19:32:00,
2013-03-10 15:37:00,49.1,38.3,30.48,East,90,1.8,1.8,66,0.00,,,0.00,WUHU216HW,2013-03-10 19:37:00,
2013-03-10 15:42:00,49.3,38.0,30.48,ESE,113,1.8,2.7,65,0.00,,,0.00,WUHU216HW,2013-03-10 19:42:00,
2013-03-10 15:47:00,49.1,37.8,30.48,East,90,1.6,2.7,65,0.00,,,0.00,WUHU216HW,2013-03-10 19:47:00,
2013-03-10 15:52:00,49.1,37.8,30.48,ESE,113,1.6,2.0,65,0.00,,,0.00,WUHU216HW,2013-03-10 19:52:00,
2013-03-10 15:57:00,49.5,38.2,30.48,ENE,68,1.8,2.0,65,0.00,,,0.00,WUHU216HW,2013-03-10 19:57:00,
2013-03-10 16:02:00,49.5,38.2,30.47,ESE,113,2.5,2.5,65,0.00,,,0.00,WUHU216HW,2013-03-10 20:02:00,
2013-03-10 16:07:00,50.2,38.9,30.47,ESE,113,1.8,4.7,65,0.00,,,0.00,WUHU216HW,2013-03-10 20:07:00,
2013-03-10 16:12:00,50.8,39.4,30.47,South,180,1.8,4.7,65,0.00,,,0.00,WUHU216HW,2013-03-10 20:12:00,
2013-03-10 16:17:00,51.3,39.9,30.47,SE,135,4.5,4.5,65,0.00,,,0.00,WUHU216HW,2013-03-10 20:17:00,
2013-03-10 16:22:00,51.8,40.0,30.47,East,90,3.4,4.5,64,0.00,,,0.00,WUHU216HW,2013-03-10 20:22:00,
2013-03-10 16:27:00,51.8,39.6,30.47,NE,45,0.7,5.1,63,0.00,,,0.00,WUHU216HW,2013-03-10 20:27:00,
2013-03-10 16:32:00,51.1,38.9,30.47,SSE,158,1.1,5.1,63,0.00,,,0.00,WUHU216HW,2013-03-10 20:32:00,
2013-03-10 16:37:00,50.9,38.7,30.46,ESE,113,2.0,2.0,63,0.00,,,0.00,WUHU216HW,2013-03-10 20:37:00,
2013-03-10 16:42:00,50.8,38.6,30.47,ESE,113,1.1,2.2,63,0.00,,,0.00,WUHU216HW,2013-03-10 20:42:00,
2013-03-10 16:47:00,50.6,38.4,30.46,ENE,68,2.5,2.5,63,0.00,,,0.00,WUHU216HW,2013-03-10 20:47:00,
2013-03-10 16:52:00,50.9,39.2,30.46,SE,135,3.6,3.6,64,0.00,,,0.00,WUHU216HW,2013-03-10 20:52:00,
2013-03-10 16:57:00,50.4,37.8,30.46,SE,135,2.9,3.6,62,0.00,,,0.00,WUHU216HW,2013-03-10 20:57:00,
2013-03-10 17:02:00,49.7,37.2,30.47,ESE,113,0.4,4.0,62,0.00,,,0.00,WUHU216HW,2013-03-10 21:02:00,
2013-03-10 17:07:00,48.8,36.7,30.47,SE,135,3.1,4.0,63,0.00,,,0.00,WUHU216HW,2013-03-10 21:07:00,
2013-03-10 17:12:00,48.8,36.7,30.47,ESE,113,1.1,3.1,63,0.00,,,0.00,WUHU216HW,2013-03-10 21:12:00,
2013-03-10 17:17:00,48.6,36.5,30.46,SE,135,1.6,4.0,63,0.00,,,0.00,WUHU216HW,2013-03-10 21:17:00,
2013-03-10 17:22:00,48.4,36.4,30.47,ESE,113,1.8,4.0,63,0.00,,,0.00,WUHU216HW,2013-03-10 21:22:00,
2013-03-10 17:27:00,48.2,36.3,30.47,ENE,68,1.3,1.8,63,0.00,,,0.00,WUHU216HW,2013-03-10 21:27:00,
2013-03-10 17:32:00,48.1,36.5,30.46,ESE,113,1.8,1.8,64,0.00,,,0.00,WUHU216HW,2013-03-10 21:32:00,
2013-03-10 17:37:00,47.7,36.1,30.46,SE,135,0.4,1.8,64,0.00,,,0.00,WUHU216HW,2013-03-10 21:37:00,
2013-03-10 17:42:00,47.2,35.6,30.46,ESE,113,3.1,5.1,64,0.00,,,0.00,WUHU216HW,2013-03-10 21:42:00,
2013-03-10 17:47:00,47.2,36.0,30.46,East,90,3.1,5.1,65,0.00,,,0.00,WUHU216HW,2013-03-10 21:47:00,
2013-03-10 17:52:00,46.4,35.3,30.46,SSE,158,2.2,4.3,65,0.00,,,0.00,WUHU216HW,2013-03-10 21:52:00,
2013-03-10 17:57:00,46.1,34.9,30.46,SE,135,3.8,4.3,65,0.00,,,0.00,WUHU216HW,2013-03-10 21:57:00,
2013-03-10 18:02:00,45.7,35.0,30.46,ESE,113,2.0,3.8,66,0.00,,,0.00,WUHU216HW,2013-03-10 22:02:00,
2013-03-10 18:07:00,45.4,34.7,30.46,SSE,158,0.9,2.0,66,0.00,,,0.00,WUHU216HW,2013-03-10 22:07:00,
2013-03-10 18:12:00,45.4,35.0,30.46,SE,135,3.6,4.0,67,0.00,,,0.00,WUHU216HW,2013-03-10 22:12:00,
2013-03-10 18:17:00,45.2,34.8,30.46,ESE,113,2.7,4.0,67,0.00,,,0.00,WUHU216HW,2013-03-10 22:17:00,
2013-03-10 18:22:00,44.8,34.5,30.46,SSE,158,1.8,2.7,67,0.00,,,0.00,WUHU216HW,2013-03-10 22:22:00,
2013-03-10 18:28:00,44.5,34.6,30.46,SE,135,1.8,2.9,68,0.00,,,0.00,WUHU216HW,2013-03-10 22:28:00,
2013-03-10 18:33:00,44.3,34.4,30.46,ESE,113,0.9,3.6,68,0.00,,,0.00,WUHU216HW,2013-03-10 22:33:00,
2013-03-10 18:38:00,43.9,34.0,30.46,ESE,113,3.8,3.8,68,0.00,,,0.00,WUHU216HW,2013-03-10 22:38:00,
2013-03-10 18:43:00,43.7,34.3,30.46,SSE,158,2.7,3.8,69,0.00,,,0.00,WUHU216HW,2013-03-10 22:43:00,
2013-03-10 18:47:00,43.2,33.8,30.46,SSE,158,4.9,4.9,69,0.00,,,0.00,WUHU216HW,2013-03-10 22:47:00,
2013-03-10 18:48:00,43.2,33.8,30.46,SSE,158,4.9,4.9,69,0.00,,,0.00,WUHU216HW,2013-03-10 22:48:00,
2013-03-10 18:53:00,43.2,33.8,30.46,SSE,158,4.9,4.9,69,0.00,,,0.00,WUHU216HW,2013-03-10 22:53:00,
2013-03-10 19:00:00,42.1,33.5,30.47,SSE,158,3.6,3.6,71,0.00,,,0.00,WUHU216HW,2013-03-10 23:00:00,
2013-03-10 19:05:00,41.8,32.8,30.47,South,180,1.8,3.6,70,0.00,,,0.00,WUHU216HW,2013-03-10 23:05:00,
2013-03-10 19:10:00,41.8,33.1,30.47,SSE,158,4.5,4.5,71,0.00,,,0.00,WUHU216HW,2013-03-10 23:10:00,
2013-03-10 19:15:00,41.4,32.8,30.47,South,180,5.4,5.4,71,0.00,,,0.00,WUHU216HW,2013-03-10 23:15:00,
2013-03-10 19:20:00,41.2,32.6,30.47,SSE,158,0.4,5.4,71,0.00,,,0.00,WUHU216HW,2013-03-10 23:20:00,
2013-03-10 19:25:00,41.0,32.7,30.47,SSE,158,1.3,2.7,72,0.00,,,0.00,WUHU216HW,2013-03-10 23:25:00,
2013-03-10 19:30:00,41.0,32.7,30.47,ESE,113,2.5,2.5,72,0.00,,,0.00,WUHU216HW,2013-03-10 23:30:00,
2013-03-10 19:35:00,40.9,32.5,30.47,SSE,158,0.4,2.5,72,0.00,,,0.00,WUHU216HW,2013-03-10 23:35:00,
2013-03-10 19:40:00,40.9,32.9,30.47,SSE,158,0.9,1.1,73,0.00,,,0.00,WUHU216HW,2013-03-10 23:40:00,
2013-03-10 19:45:00,40.7,32.7,30.46,SSE,158,0.4,2.2,73,0.00,,,0.00,WUHU216HW,2013-03-10 23:45:00,
2013-03-10 19:50:00,40.5,32.9,30.46,SSE,158,0.0,1.1,74,0.00,,,0.00,WUHU216HW,2013-03-10 23:50:00,
2013-03-10 19:55:00,40.5,32.9,30.46,SE,135,0.4,1.1,74,0.00,,,0.00,WUHU216HW,2013-03-10 23:55:00,
2013-03-10 20:01:00,40.3,32.7,30.46,SE,135,0.0,1.1,74,0.00,,,0.00,WUHU216HW,2013-03-11 00:01:00,
2013-03-10 20:07:00,40.1,32.5,30.46,SE,135,0.2,1.1,74,0.00,,,0.00,WUHU216HW,2013-03-11 00:07:00,
2013-03-10 20:12:00,40.1,32.8,30.46,SE,135,0.7,1.6,75,0.00,,,0.00,WUHU216HW,2013-03-11 00:12:00,
2013-03-10 20:17:00,40.0,32.7,30.46,ESE,113,0.7,1.6,75,0.00,,,0.00,WUHU216HW,2013-03-11 00:17:00,
2013-03-10 20:22:00,40.0,32.7,30.46,SSE,158,1.3,1.3,75,0.00,,,0.00,WUHU216HW,2013-03-11 00:22:00,
2013-03-10 20:27:00,40.0,32.9,30.46,SSE,158,1.1,1.3,76,0.00,,,0.00,WUHU216HW,2013-03-11 00:27:00,
2013-03-10 20:32:00,40.0,32.9,30.46,SSE,158,0.4,1.3,76,0.00,,,0.00,WUHU216HW,2013-03-11 00:32:00,
2013-03-10 20:37:00,39.8,32.8,30.46,South,180,0.0,1.3,76,0.00,,,0.00,WUHU216HW,2013-03-11 00:37:00,
2013-03-10 20:42:00,39.6,32.7,30.46,SE,135,0.9,1.1,76,0.00,,,0.00,WUHU216HW,2013-03-11 00:42:00,
2013-03-10 20:47:00,39.6,32.9,30.46,SE,135,0.0,0.9,77,0.00,,,0.00,WUHU216HW,2013-03-11 00:47:00,
2013-03-10 20:52:00,39.4,32.8,30.46,SE,135,0.4,1.1,77,0.00,,,0.00,WUHU216HW,2013-03-11 00:52:00,
2013-03-10 20:57:00,39.4,32.8,30.46,SE,135,0.0,1.1,77,0.00,,,0.00,WUHU216HW,2013-03-11 00:57:00,
2013-03-10 21:02:00,39.2,32.7,30.46,SE,135,0.2,1.1,77,0.00,,,0.00,WUHU216HW,2013-03-11 01:02:00,
2013-03-10 21:07:00,39.2,32.7,30.46,SE,135,0.0,1.1,77,0.00,,,0.00,WUHU216HW,2013-03-11 01:07:00,
2013-03-10 21:12:00,39.2,32.7,30.47,SE,135,0.0,0.4,77,0.00,,,0.00,WUHU216HW,2013-03-11 01:12:00,
2013-03-10 21:17:00,39.2,32.7,30.47,SE,135,0.0,0.0,77,0.00,,,0.00,WUHU216HW,2013-03-11 01:17:00,
2013-03-10 21:38:00,38.9,32.9,30.46,SE,135,0.0,0.0,79,0.00,,,0.00,WUHU216HW,2013-03-11 01:38:00,
2013-03-10 21:43:00,38.9,32.9,30.46,SE,135,0.4,0.4,79,0.00,,,0.00,WUHU216HW,2013-03-11 01:43:00,
2013-03-10 21:48:00,38.7,32.8,30.46,SSE,158,0.0,0.9,79,0.00,,,0.00,WUHU216HW,2013-03-11 01:48:00,
2013-03-10 21:53:00,38.7,32.8,30.46,SE,135,1.1,1.1,79,0.00,,,0.00,WUHU216HW,2013-03-11 01:53:00,
2013-03-10 21:59:00,38.7,32.8,30.45,SE,135,1.1,1.1,79,0.00,,,0.00,WUHU216HW,2013-03-11 01:59:00,
2013-03-10 22:04:00,38.7,32.8,30.45,SE,135,0.4,1.1,79,0.00,,,0.00,WUHU216HW,2013-03-11 02:04:00,
2013-03-10 22:09:00,38.7,32.8,30.45,ESE,113,0.2,0.7,79,0.00,,,0.00,WUHU216HW,2013-03-11 02:09:00,
2013-03-10 22:14:00,38.7,32.8,30.45,ESE,113,0.4,0.9,79,0.00,,,0.00,WUHU216HW,2013-03-11 02:14:00,
2013-03-10 22:19:00,38.9,32.9,30.45,SE,135,0.9,0.9,79,0.00,,,0.00,WUHU216HW,2013-03-11 02:19:00,
2013-03-10 22:24:00,38.9,33.3,30.44,SSE,158,0.7,1.1,80,0.00,,,0.00,WUHU216HW,2013-03-11 02:24:00,
2013-03-10 22:29:00,38.9,33.3,30.44,SE,135,1.1,1.3,80,0.00,,,0.00,WUHU216HW,2013-03-11 02:29:00,
2013-03-10 22:34:00,39.1,33.5,30.44,SE,135,0.4,1.6,80,0.00,,,0.00,WUHU216HW,2013-03-11 02:34:00,
2013-03-10 22:39:00,39.1,33.5,30.44,SE,135,1.8,2.2,80,0.00,,,0.00,WUHU216HW,2013-03-11 02:39:00,
2013-03-10 22:44:00,39.2,33.7,30.44,SE,135,1.1,2.2,80,0.00,,,0.00,WUHU216HW,2013-03-11 02:44:00,
2013-03-10 22:49:00,39.2,33.7,30.45,SSW,203,0.9,3.4,80,0.00,,,0.00,WUHU216HW,2013-03-11 02:49:00,
2013-03-10 22:54:00,39.2,33.9,30.45,SE,135,0.9,3.4,81,0.00,,,0.00,WUHU216HW,2013-03-11 02:54:00,
2013-03-10 22:59:00,39.2,33.9,30.44,SE,135,1.3,2.7,81,0.00,,,0.00,WUHU216HW,2013-03-11 02:59:00,
2013-03-10 23:04:00,39.2,33.9,30.44,SE,135,1.6,2.7,81,0.00,,,0.00,WUHU216HW,2013-03-11 03:04:00,
2013-03-10 23:09:00,39.2,33.9,30.44,ESE,113,0.7,1.8,81,0.00,,,0.00,WUHU216HW,2013-03-11 03:09:00,
2013-03-10 23:15:00,39.4,34.1,30.44,ENE,68,0.4,2.0,81,0.00,,,0.00,WUHU216HW,2013-03-11 03:15:00,
2013-03-10 23:19:00,39.4,34.1,30.44,SE,135,0.4,2.2,81,0.00,,,0.00,WUHU216HW,2013-03-11 03:19:00,
2013-03-10 23:24:00,39.4,34.1,30.44,SSE,158,0.0,2.2,81,0.00,,,0.00,WUHU216HW,2013-03-11 03:24:00,
2013-03-10 23:29:00,39.4,34.1,30.44,SSE,158,0.4,1.3,81,0.00,,,0.00,WUHU216HW,2013-03-11 03:29:00,
2013-03-10 23:34:00,39.4,34.1,30.44,SSE,158,0.0,1.3,81,0.00,,,0.00,WUHU216HW,2013-03-11 03:34:00,
2013-03-10 23:39:00,39.4,34.1,30.44,SSE,158,0.4,0.4,81,0.00,,,0.00,WUHU216HW,2013-03-11 03:39:00,
2013-03-10 23:44:00,39.4,34.1,30.44,South,180,0.0,0.4,81,0.00,,,0.00,WUHU216HW,2013-03-11 03:44:00,
2013-03-10 23:49:00,39.2,34.2,30.44,South,180,0.0,0.2,82,0.00,,,0.00,WUHU216HW,2013-03-11 03:49:00,
2013-03-10 23:54:00,39.2,34.2,30.44,SSE,158,0.0,0.0,82,0.00,,,0.00,WUHU216HW,2013-03-11 03:54:00,
2013-03-10 23:59:00,39.2,34.2,30.44,SSE,158,0.0,0.0,82,0.00,,,0.00,WUHU216HW,2013-03-11 03:59:00,